Time;durP1;ratioP1;P1;durP2;ratioP2;P2;SDS_P1;SDS_P2;PMS_P1;PMS_P2;Temp;Humidity;BMP_temperature;BMP_pressure;BME280_temperature;BME280_humidity;BME280_pressure;Samples;Min_cycle;Max_cycle;Signal;HPM_P1;HPM_P2
2022/07/12 00:01:11;;;;;;;6.70;6.22;;;;;;;-141.48;100.00;69781.59;4956079;29;20080;-67
2022/07/12 00:03:41;;;;;;;6.35;5.82;;;;;;;-141.48;100.00;69781.59;4971830;29;20488;-67
2022/07/12 00:06:12;;;;;;;7.78;7.28;;;;;;;-141.48;100.00;69781.59;4972137;29;20030;-68
2022/07/12 00:08:42;;;;;;;7.00;6.40;;;;;;;-141.48;100.00;69781.59;4955949;29;20035;-67
2022/07/12 00:11:13;;;;;;;6.28;5.97;;;;;;;-141.48;100.00;69781.59;4972280;29;20031;-65
2022/07/12 00:13:43;;;;;;;6.38;5.95;;;;;;;-141.48;100.00;69781.59;4971982;29;20063;-66
2022/07/12 00:16:14;;;;;;;8.32;7.40;;;;;;;-141.48;100.00;69781.59;4972096;29;20029;-66
2022/07/12 00:18:44;;;;;;;6.03;5.63;;;;;;;-141.48;100.00;69781.59;4955930;29;20084;-65
2022/07/12 00:21:15;;;;;;;6.15;5.82;;;;;;;-141.48;100.00;69781.59;4971835;29;20455;-66
2022/07/12 00:23:45;;;;;;;7.15;6.65;;;;;;;-141.48;100.00;69781.59;4971432;29;20036;-66
2022/07/12 00:26:16;;;;;;;7.07;6.65;;;;;;;-141.48;100.00;69781.59;4971897;29;20413;-65
2022/07/12 00:28:47;;;;;;;6.25;5.85;;;;;;;-141.48;100.00;69781.59;4955642;29;20035;-70
2022/07/12 00:31:18;;;;;;;6.25;5.93;;;;;;;-141.48;100.00;69781.59;4955206;29;20031;-67
2022/07/12 00:33:48;;;;;;;5.93;5.53;;;;;;;-141.48;100.00;69781.59;4971429;29;20041;-67
2022/07/12 00:36:19;;;;;;;12.07;7.90;;;;;;;-141.48;100.00;69781.59;4971675;29;20518;-67
2022/07/12 00:38:50;;;;;;;8.13;7.57;;;;;;;-141.48;100.00;69781.59;4955182;29;20457;-67
2022/07/12 00:41:20;;;;;;;6.25;5.85;;;;;;;-141.48;100.00;69781.59;4971679;29;20168;-67
2022/07/12 00:43:52;;;;;;;6.15;5.63;;;;;;;-141.48;100.00;69781.59;4971561;29;20087;-66
2022/07/12 00:46:23;;;;;;;7.85;7.35;;;;;;;-141.48;100.00;69781.59;4971313;29;20031;-67
2022/07/12 00:48:54;;;;;;;7.07;6.47;;;;;;;-141.48;100.00;69781.59;4971447;29;20031;-68
2022/07/12 00:51:25;;;;;;;8.43;7.85;;;;;;;-141.48;100.00;69781.59;4971361;29;20484;-66
2022/07/12 00:53:58;;;;;;;6.97;6.68;;;;;;;-141.48;100.00;69781.59;4971191;29;20041;-67
2022/07/12 00:56:29;;;;;;;7.93;7.43;;;;;;;-141.48;100.00;69781.59;4971370;29;20059;-67
2022/07/12 00:58:59;;;;;;;7.80;7.13;;;;;;;-141.48;100.00;69781.59;4955015;29;20031;-67
2022/07/12 01:01:30;;;;;;;7.80;7.30;;;;;;;-141.48;100.00;69781.59;4971304;29;20027;-67
2022/07/12 01:04:01;;;;;;;7.78;7.22;;;;;;;-141.48;100.00;69781.59;4970929;29;20506;-68
2022/07/12 01:06:33;;;;;;;7.45;7.00;;;;;;;-141.48;100.00;69781.59;4971085;29;20115;-67
2022/07/12 01:09:03;;;;;;;7.03;6.53;;;;;;;-141.48;100.00;69781.59;4971137;29;20038;-67
2022/07/12 01:11:34;;;;;;;6.88;6.57;;;;;;;-141.48;100.00;69781.59;4970760;29;20031;-67
2022/07/12 01:14:05;;;;;;;7.82;7.22;;;;;;;-141.48;100.00;69781.59;4970634;29;20412;-68
2022/07/12 01:16:37;;;;;;;7.32;6.80;;;;;;;-141.48;100.00;69781.59;4970835;29;20023;-67
2022/07/12 01:19:15;;;;;;;8.38;7.80;;;;;;;-141.48;100.00;69781.59;4970786;29;20056;-67
2022/07/12 01:21:48;;;;;;;8.05;7.50;;;;;;;-141.48;100.00;69781.59;4970681;29;20030;-67
2022/07/12 01:24:19;;;;;;;7.50;6.93;;;;;;;-141.48;100.00;69781.59;4970801;29;20034;-67
2022/07/12 01:26:51;;;;;;;7.03;6.63;;;;;;;-141.48;100.00;69781.59;4970832;29;20035;-68
2022/07/12 01:29:21;;;;;;;7.85;7.25;;;;;;;-141.48;100.00;69781.59;4970893;29;20117;-67
2022/07/12 01:31:52;;;;;;;7.72;7.22;;;;;;;-141.48;100.00;69781.59;4970722;29;20110;-66
2022/07/12 01:34:22;;;;;;;7.32;6.88;;;;;;;-141.48;100.00;69781.59;4970324;29;20481;-67
2022/07/12 01:36:54;;;;;;;8.48;8.00;;;;;;;-141.48;100.00;69781.59;4970537;29;20062;-68
2022/07/12 01:39:25;;;;;;;7.35;6.63;;;;;;;-141.48;100.00;69781.59;4970392;29;20026;-67
2022/07/12 01:41:55;;;;;;;6.90;6.28;;;;;;;-141.48;100.00;69781.59;4970051;29;20092;-66
2022/07/12 01:44:25;;;;;;;7.93;7.43;;;;;;;-141.48;100.00;69781.59;4969943;29;20038;-66
2022/07/12 01:46:57;;;;;;;6.93;6.45;;;;;;;-141.48;100.00;69781.59;4970434;29;20452;-66
2022/07/12 01:49:27;;;;;;;7.47;5.80;;;;;;;-141.48;100.00;69781.59;4970562;29;20022;-67
2022/07/12 01:51:58;;;;;;;6.43;6.10;;;;;;;-141.48;100.00;69781.59;4970315;29;20035;-66
2022/07/12 01:54:28;;;;;;;7.03;6.63;;;;;;;-141.48;100.00;69781.59;4969929;29;20038;-66
2022/07/12 01:56:59;;;;;;;6.45;6.15;;;;;;;-141.48;100.00;69781.59;4953969;29;20417;-66
2022/07/12 01:59:30;;;;;;;6.95;6.45;;;;;;;-141.48;100.00;69781.59;4970656;29;20372;-67
2022/07/12 02:02:01;;;;;;;8.30;5.65;;;;;;;-141.48;100.00;69781.59;4970403;29;20031;-66
2022/07/12 02:04:31;;;;;;;6.60;6.13;;;;;;;-141.48;100.00;69781.59;4969832;29;20519;-66
2022/07/12 02:07:03;;;;;;;6.85;6.28;;;;;;;-141.48;100.00;69781.59;4969720;29;20404;-67
2022/07/12 02:09:34;;;;;;;6.30;5.78;;;;;;;-141.48;100.00;69781.59;4969886;29;20038;-67
2022/07/12 02:12:05;;;;;;;7.32;6.85;;;;;;;-141.48;100.00;69781.59;4953943;29;20385;-67
2022/07/12 02:14:35;;;;;;;8.07;7.47;;;;;;;-141.48;100.00;69781.59;4969547;29;20031;-66
2022/07/12 02:17:05;;;;;;;7.38;6.97;;;;;;;-141.48;100.00;69781.59;4970064;29;20027;-66
2022/07/12 02:19:36;;;;;;;6.68;6.28;;;;;;;-141.48;100.00;69781.59;4953573;29;20027;-66
2022/07/12 02:22:06;;;;;;;8.27;7.70;;;;;;;-141.48;100.00;69781.59;4969855;29;20507;-65
2022/07/12 02:24:37;;;;;;;7.35;6.85;;;;;;;-141.48;100.00;69781.59;4969499;29;20031;-67
2022/07/12 02:27:07;;;;;;;7.20;6.18;;;;;;;-141.48;100.00;69781.59;4970325;29;20050;-66
2022/07/12 02:29:38;;;;;;;7.75;7.25;;;;;;;-141.48;100.00;69781.59;4969808;29;20042;-66
2022/07/12 02:32:08;;;;;;;6.47;6.07;;;;;;;-141.48;100.00;69781.59;4969945;29;20038;-66
2022/07/12 02:34:39;;;;;;;8.63;8.05;;;;;;;-141.48;100.00;69781.59;4969266;29;20031;-66
2022/07/12 02:37:09;;;;;;;10.45;7.72;;;;;;;-141.48;100.00;69781.59;4970161;29;20532;-66
2022/07/12 02:39:39;;;;;;;6.55;6.05;;;;;;;-141.48;100.00;69781.59;4953325;29;20049;-66
2022/07/12 02:42:10;;;;;;;6.82;6.40;;;;;;;-141.48;100.00;69781.59;4970027;29;20113;-67
2022/07/12 02:44:40;;;;;;;7.13;6.72;;;;;;;-141.48;100.00;69781.59;4953002;29;20042;-67
2022/07/12 02:47:11;;;;;;;7.72;7.22;;;;;;;-141.48;100.00;69781.59;4953144;29;20034;-66
2022/07/12 02:49:41;;;;;;;7.88;7.47;;;;;;;-141.48;100.00;69781.59;4969486;29;20411;-66
2022/07/12 02:52:11;;;;;;;9.75;7.45;;;;;;;-141.48;100.00;69781.59;4969856;29;20447;-67
2022/07/12 02:54:42;;;;;;;7.47;6.97;;;;;;;-141.48;100.00;69781.59;4971661;29;20053;-66
2022/07/12 02:57:12;;;;;;;7.20;6.70;;;;;;;-141.48;100.00;69781.59;4973681;29;20027;-67
2022/07/12 02:59:42;;;;;;;7.85;7.32;;;;;;;-141.48;100.00;69781.59;4973047;29;20117;-67
2022/07/12 03:02:13;;;;;;;7.30;5.85;;;;;;;-141.48;100.00;69781.59;4973397;29;20029;-67
2022/07/12 03:04:43;;;;;;;8.98;8.35;;;;;;;-141.48;100.00;69781.59;4972765;29;20026;-67
2022/07/12 03:07:14;;;;;;;8.95;8.10;;;;;;;-141.48;100.00;69781.59;4973039;29;20503;-67
2022/07/12 03:09:44;;;;;;;8.05;7.38;;;;;;;-141.48;100.00;69781.59;4956781;29;20034;-67
2022/07/12 03:12:15;;;;;;;7.40;6.95;;;;;;;-141.48;100.00;69781.59;4956916;29;20058;-67
2022/07/12 03:14:45;;;;;;;9.07;6.72;;;;;;;-141.48;100.00;69781.59;4972778;29;20038;-67
2022/07/12 03:17:16;;;;;;;7.85;6.95;;;;;;;-141.48;100.00;69781.59;4973035;29;20066;-68
2022/07/12 03:19:46;;;;;;;8.43;7.82;;;;;;;-141.48;100.00;69781.59;4972757;29;20056;-68
2022/07/12 03:22:17;;;;;;;8.30;7.68;;;;;;;-141.48;100.00;69781.59;4956773;29;20066;-68
2022/07/12 03:24:47;;;;;;;7.18;6.78;;;;;;;-141.48;100.00;69781.59;4972174;29;20690;-68
2022/07/12 03:27:18;;;;;;;8.57;7.97;;;;;;;-141.48;100.00;69781.59;4956277;29;20046;-67
2022/07/12 03:29:48;;;;;;;8.35;7.75;;;;;;;-141.48;100.00;69781.59;4972751;29;20500;-68
2022/07/12 03:32:19;;;;;;;7.55;6.95;;;;;;;-141.48;100.00;69781.59;4972538;29;20038;-68
2022/07/12 03:34:49;;;;;;;7.03;6.40;;;;;;;-141.48;100.00;69781.59;4972259;29;20027;-67
2022/07/12 03:37:19;;;;;;;7.82;6.78;;;;;;;-141.48;100.00;69781.59;4972336;29;20480;-68
2022/07/12 03:39:50;;;;;;;8.75;8.15;;;;;;;-141.48;100.00;69781.59;4972302;29;20408;-67
2022/07/12 03:42:20;;;;;;;7.47;6.97;;;;;;;-141.48;100.00;69781.59;4956345;29;20035;-68
2022/07/12 03:44:51;;;;;;;7.85;7.25;;;;;;;-141.48;100.00;69781.59;4955961;29;20504;-67
2022/07/12 03:47:21;;;;;;;7.90;7.28;;;;;;;-141.48;100.00;69781.59;4972402;29;20117;-67
2022/07/12 03:49:52;;;;;;;7.20;6.75;;;;;;;-141.48;100.00;69781.59;4972250;29;20084;-67
2022/07/12 03:52:22;;;;;;;10.48;7.07;;;;;;;-141.48;100.00;69781.59;4972147;29;20026;-67
2022/07/12 03:54:52;;;;;;;7.72;7.22;;;;;;;-141.48;100.00;69781.59;4972006;29;20023;-67
2022/07/12 03:57:24;;;;;;;7.47;6.93;;;;;;;-141.48;100.00;69781.59;4972443;29;20434;-68
2022/07/12 03:59:55;;;;;;;7.13;6.80;;;;;;;-141.48;100.00;69781.59;4955917;29;20408;-69
2022/07/12 04:02:25;;;;;;;6.57;6.20;;;;;;;-141.48;100.00;69781.59;4971880;29;20039;-69
2022/07/12 04:04:56;;;;;;;8.18;7.57;;;;;;;-141.48;100.00;69781.59;4970950;29;20400;-68
2022/07/12 04:07:26;;;;;;;7.22;6.72;;;;;;;-141.48;100.00;69781.59;4971889;29;20076;-68
2022/07/12 04:09:57;;;;;;;8.02;7.43;;;;;;;-141.48;100.00;69781.59;4971968;29;20030;-69
2022/07/12 04:12:27;;;;;;;6.45;6.15;;;;;;;-141.48;100.00;69781.59;4971968;29;20039;-68
2022/07/12 04:14:58;;;;;;;7.25;6.75;;;;;;;-141.48;100.00;69781.59;4971392;29;20070;-68
2022/07/12 04:17:28;;;;;;;8.27;6.30;;;;;;;-141.48;100.00;69781.59;4971738;29;20043;-68
2022/07/12 04:19:59;;;;;;;7.70;7.20;;;;;;;-141.48;100.00;69781.59;4971840;29;20042;-68
2022/07/12 04:22:29;;;;;;;9.13;8.13;;;;;;;-141.48;100.00;69781.59;4955693;29;20392;-68
2022/07/12 04:25:00;;;;;;;9.55;8.10;;;;;;;-141.48;100.00;69781.59;4971532;29;20037;-69
2022/07/12 04:27:30;;;;;;;8.40;7.80;;;;;;;-141.48;100.00;69781.59;4971724;29;20110;-69
2022/07/12 04:30:00;;;;;;;9.27;8.70;;;;;;;-141.48;100.00;69781.59;4971692;29;20023;-68
2022/07/12 04:32:31;;;;;;;9.95;9.35;;;;;;;-141.48;100.00;69781.59;4971730;29;20035;-68
2022/07/12 04:35:01;;;;;;;10.18;9.48;;;;;;;-141.48;100.00;69781.59;4971412;29;20053;-68
2022/07/12 04:37:32;;;;;;;9.68;8.93;;;;;;;-141.48;100.00;69781.59;4984449;24;20051;-63
2022/07/12 04:40:02;;;;;;;9.32;8.50;;;;;;;-141.48;100.00;69781.59;4971519;29;20031;-62
2022/07/12 04:42:33;;;;;;;9.32;8.50;;;;;;;-141.48;100.00;69781.59;4971133;29;20100;-63
2022/07/12 04:45:04;;;;;;;8.98;8.38;;;;;;;-141.48;100.00;69781.59;4954733;29;20523;-64
2022/07/12 04:47:37;;;;;;;9.43;8.63;;;;;;;-141.48;100.00;69781.59;4971080;29;20038;-63
2022/07/12 04:50:08;;;;;;;8.98;8.38;;;;;;;-141.48;100.00;69781.59;4969906;29;20411;-63
2022/07/12 04:52:38;;;;;;;8.60;7.88;;;;;;;-141.48;100.00;69781.59;4971444;29;20035;-63
2022/07/12 04:55:09;;;;;;;9.90;8.93;;;;;;;-141.48;100.00;69781.59;4971003;29;20030;-63
2022/07/12 04:57:39;;;;;;;7.70;7.22;;;;;;;-141.48;100.00;69781.59;4971005;29;20400;-63
2022/07/12 05:00:10;;;;;;;8.60;8.10;;;;;;;-141.48;100.00;69781.59;4971218;29;20033;-63
2022/07/12 05:02:41;;;;;;;8.63;7.90;;;;;;;-141.48;100.00;69781.59;4970797;29;20488;-63
2022/07/12 05:05:11;;;;;;;8.13;7.53;;;;;;;-141.48;100.00;69781.59;4970692;29;20030;-62
2022/07/12 05:07:42;;;;;;;8.30;7.60;;;;;;;-141.48;100.00;69781.59;4970780;29;20096;-63
2022/07/12 05:10:12;;;;;;;7.60;7.00;;;;;;;-141.48;100.00;69781.59;4970910;29;20066;-62
2022/07/12 05:12:43;;;;;;;9.90;9.20;;;;;;;-141.48;100.00;69781.59;4971041;29;20411;-62
2022/07/12 05:15:13;;;;;;;9.07;8.23;;;;;;;-141.48;100.00;69781.59;4970353;29;20031;-62
2022/07/12 05:17:44;;;;;;;7.80;7.38;;;;;;;-141.48;100.00;69781.59;4970516;29;20553;-62
2022/07/12 05:20:14;;;;;;;9.10;8.55;;;;;;;-141.48;100.00;69781.59;4970688;29;20074;-63
2022/07/12 05:22:45;;;;;;;10.02;9.00;;;;;;;-141.48;100.00;69781.59;4970766;29;20033;-61
2022/07/12 05:25:16;;;;;;;9.60;9.00;;;;;;;-141.48;100.00;69781.59;4970073;29;20091;-62
2022/07/12 05:27:46;;;;;;;10.48;8.88;;;;;;;-141.48;100.00;69781.59;4969341;29;20446;-63
2022/07/12 05:30:17;;;;;;;8.95;8.35;;;;;;;-141.48;100.00;69781.59;4970391;29;20035;-62
2022/07/12 05:32:47;;;;;;;11.02;10.23;;;;;;;-141.48;100.00;69781.59;4970394;29;20026;-62
2022/07/12 05:35:18;;;;;;;9.73;8.85;;;;;;;-141.48;100.00;69781.59;4968691;29;20549;-62
2022/07/12 05:37:48;;;;;;;9.52;8.93;;;;;;;-141.48;100.00;69781.59;4968846;29;20035;-64
2022/07/12 05:40:18;;;;;;;11.50;10.32;;;;;;;-141.48;100.00;69781.59;4970107;29;20503;-62
2022/07/12 05:42:49;;;;;;;10.63;9.55;;;;;;;-141.48;100.00;69781.59;4970721;29;20027;-63
2022/07/12 05:45:19;;;;;;;8.90;8.25;;;;;;;-141.48;100.00;69781.59;4969765;29;20038;-62
2022/07/12 05:47:50;;;;;;;13.57;9.43;;;;;;;-141.48;100.00;69781.59;4969907;29;20091;-64
2022/07/12 05:50:20;;;;;;;11.20;10.30;;;;;;;-141.48;100.00;69781.59;4968721;29;20087;-63
2022/07/12 05:55:39;;;;;;;11.27;10.27;;;;;;;-141.48;100.00;69781.59;4969824;29;20083;-62
2022/07/12 05:58:10;;;;;;;11.90;11.00;;;;;;;-141.48;100.00;69781.59;4969938;29;20276;-63
2022/07/12 06:00:41;;;;;;;11.70;10.77;;;;;;;-141.48;100.00;69781.59;4969796;29;20030;-63
2022/07/12 06:03:11;;;;;;;11.43;10.60;;;;;;;-141.48;100.00;69781.59;4969924;29;20053;-62
2022/07/12 06:05:42;;;;;;;10.18;9.43;;;;;;;-141.48;100.00;69781.59;4968274;29;20515;-63
2022/07/12 06:08:12;;;;;;;12.25;11.35;;;;;;;-141.48;100.00;69781.59;4968504;29;20130;-62
2022/07/12 06:10:43;;;;;;;12.90;11.55;;;;;;;-141.48;100.00;69781.59;4969813;29;20295;-63
2022/07/12 06:13:13;;;;;;;11.50;10.23;;;;;;;-141.48;100.00;69781.59;4969593;29;20027;-63
2022/07/12 06:15:43;;;;;;;12.10;10.88;;;;;;;-141.48;100.00;69781.59;4969468;29;20107;-63
2022/07/12 06:18:14;;;;;;;10.85;9.90;;;;;;;-141.48;100.00;69781.59;4969631;29;20476;-63
2022/07/12 06:20:44;;;;;;;9.73;8.98;;;;;;;-141.48;100.00;69781.59;4969609;29;20042;-63
2022/07/12 06:23:15;;;;;;;9.40;8.68;;;;;;;-141.48;100.00;69781.59;4969696;29;20396;-63
2022/07/12 06:25:45;;;;;;;10.15;9.45;;;;;;;-141.48;100.00;69781.59;4969693;29;20039;-68
2022/07/12 06:28:15;;;;;;;10.57;9.50;;;;;;;-141.48;100.00;69781.59;4969647;29;20035;-63
2022/07/12 06:30:46;;;;;;;10.10;9.40;;;;;;;-141.48;100.00;69781.59;4953547;29;20042;-61
2022/07/12 06:33:16;;;;;;;9.25;8.65;;;;;;;-141.48;100.00;69781.59;4969489;29;20039;-64
2022/07/12 06:35:47;;;;;;;9.93;8.90;;;;;;;-141.48;100.00;69781.59;4969162;29;20476;-63
2022/07/12 06:38:17;;;;;;;8.77;8.00;;;;;;;-141.48;100.00;69781.59;4969435;29;20054;-63
2022/07/12 06:40:47;;;;;;;8.43;7.60;;;;;;;-141.48;100.00;69781.59;4969603;29;20029;-63
2022/07/12 06:43:18;;;;;;;8.18;6.22;;;;;;;-141.48;100.00;69781.59;4969299;29;20416;-63
2022/07/12 06:45:48;;;;;;;7.60;7.07;;;;;;;-141.48;100.00;69781.59;4969217;29;20027;-63
2022/07/12 06:48:19;;;;;;;6.85;6.40;;;;;;;-141.48;100.00;69781.59;4969585;29;20370;-63
2022/07/12 06:50:49;;;;;;;8.00;7.32;;;;;;;-141.48;100.00;69781.59;4969526;29;20035;-63
2022/07/12 06:53:20;;;;;;;7.80;7.22;;;;;;;-141.48;100.00;69781.59;4969277;29;20034;-63
2022/07/12 06:55:50;;;;;;;7.35;6.93;;;;;;;-141.48;100.00;69781.59;4969012;29;20031;-63
2022/07/12 06:58:21;;;;;;;6.50;5.93;;;;;;;-141.48;100.00;69781.59;4969647;29;20472;-61
2022/07/12 07:00:51;;;;;;;7.50;6.90;;;;;;;-141.48;100.00;69781.59;4969341;29;20114;-61
2022/07/12 07:03:22;;;;;;;6.90;6.60;;;;;;;-141.48;100.00;69781.59;4969094;29;20476;-63
2022/07/12 07:05:52;;;;;;;9.27;8.57;;;;;;;-141.48;100.00;69781.59;4969116;29;20439;-61
2022/07/12 07:08:22;;;;;;;8.38;7.88;;;;;;;-141.48;100.00;69781.59;4969158;29;20027;-63
2022/07/12 07:10:53;;;;;;;8.93;8.05;;;;;;;-141.48;100.00;69781.59;4969334;29;20023;-64
2022/07/12 07:13:24;;;;;;;8.48;7.97;;;;;;;-141.48;100.00;69781.59;4968686;29;20038;-64
2022/07/12 07:15:54;;;;;;;8.82;7.97;;;;;;;-141.48;100.00;69781.59;4969171;29;20019;-63
2022/07/12 07:18:25;;;;;;;15.30;8.68;;;;;;;-141.48;100.00;69781.59;4969376;29;20034;-63
2022/07/12 07:20:55;;;;;;;9.23;8.30;;;;;;;-141.48;100.00;69781.59;4969033;29;20027;-63
2022/07/12 07:23:26;;;;;;;7.20;6.78;;;;;;;-141.48;100.00;69781.59;4968752;29;20031;-62
2022/07/12 07:25:56;;;;;;;9.52;8.65;;;;;;;-141.48;100.00;69781.59;4969011;29;20172;-63
2022/07/12 07:28:26;;;;;;;7.55;6.93;;;;;;;-141.48;100.00;69781.59;4969429;29;20027;-63
2022/07/12 07:30:58;;;;;;;8.73;7.95;;;;;;;-141.48;100.00;69781.59;4969155;29;20038;-62
2022/07/12 07:33:28;;;;;;;8.80;8.20;;;;;;;-141.48;100.00;69781.59;4967167;29;20038;-63
2022/07/12 07:35:58;;;;;;;6.35;6.00;;;;;;;-141.48;100.00;69781.59;4968905;29;20027;-67
2022/07/12 07:38:29;;;;;;;6.65;6.03;;;;;;;-141.48;100.00;69781.59;4968059;29;20449;-62
2022/07/12 07:40:59;;;;;;;7.68;7.07;;;;;;;-141.48;100.00;69781.59;4970100;29;20110;-63
2022/07/12 07:43:30;;;;;;;8.85;8.25;;;;;;;-141.48;100.00;69781.59;4971854;29;20507;-63
2022/07/12 07:46:01;;;;;;;10.30;9.65;;;;;;;-141.48;100.00;69781.59;4972417;29;20026;-64
2022/07/12 07:48:31;;;;;;;8.98;8.15;;;;;;;-141.48;100.00;69781.59;4972368;29;20039;-64
2022/07/12 07:51:02;;;;;;;8.18;7.57;;;;;;;-141.48;100.00;69781.59;4972187;29;20043;-64
2022/07/12 07:53:32;;;;;;;8.13;7.50;;;;;;;-141.48;100.00;69781.59;4971757;29;20088;-63
2022/07/12 07:56:03;;;;;;;8.40;7.78;;;;;;;-141.48;100.00;69781.59;4972065;29;20027;-63
2022/07/12 07:58:33;;;;;;;7.05;6.63;;;;;;;-141.48;100.00;69781.59;4971938;29;20522;-64
2022/07/12 08:01:04;;;;;;;9.00;8.20;;;;;;;-141.48;100.00;69781.59;4970713;29;20026;-64
2022/07/12 08:03:34;;;;;;;10.05;8.73;;;;;;;-141.48;100.00;69781.59;4971656;29;20033;-64
2022/07/12 08:06:05;;;;;;;7.53;7.07;;;;;;;-141.48;100.00;69781.59;4971917;29;20054;-63
2022/07/12 08:08:35;;;;;;;6.50;6.10;;;;;;;-141.48;100.00;69781.59;4972104;29;20031;-63
2022/07/12 08:11:06;;;;;;;7.82;7.22;;;;;;;-141.48;100.00;69781.59;4971823;29;20050;-62
2022/07/12 08:13:36;;;;;;;6.40;6.00;;;;;;;-141.48;100.00;69781.59;4971469;29;20030;-64
2022/07/12 08:16:07;;;;;;;8.90;8.10;;;;;;;-141.48;100.00;69781.59;4971947;29;20362;-63
2022/07/12 08:18:37;;;;;;;6.72;6.28;;;;;;;-141.48;100.00;69781.59;4971766;29;20027;-62
2022/07/12 08:21:08;;;;;;;7.32;6.63;;;;;;;-141.48;100.00;69781.59;4971613;29;20026;-62
2022/07/12 08:23:38;;;;;;;6.05;5.65;;;;;;;-141.48;100.00;69781.59;4971421;29;20125;-63
2022/07/12 08:26:08;;;;;;;6.30;5.80;;;;;;;-141.48;100.00;69781.59;4971847;29;20385;-63
2022/07/12 08:28:39;;;;;;;5.88;5.55;;;;;;;-141.48;100.00;69781.59;4971921;29;20396;-62
2022/07/12 08:31:09;;;;;;;7.13;6.63;;;;;;;-141.48;100.00;69781.59;4971640;29;20095;-65
2022/07/12 08:33:41;;;;;;;6.88;6.53;;;;;;;-141.48;100.00;69781.59;4970205;29;20030;-65
2022/07/12 08:36:11;;;;;;;7.65;7.15;;;;;;;-141.48;100.00;69781.59;4969806;29;20034;-64
2022/07/12 08:38:44;;;;;;;8.35;7.90;;;;;;;-141.48;100.00;69781.59;4970362;29;20485;-62
2022/07/12 08:41:15;;;;;;;5.65;5.15;;;;;;;-141.48;100.00;69781.59;4971221;29;20038;-62
2022/07/12 08:43:45;;;;;;;6.63;6.13;;;;;;;-141.48;100.00;69781.59;4971085;29;20027;-62
2022/07/12 08:46:16;;;;;;;6.63;6.13;;;;;;;-141.48;100.00;69781.59;4971230;29;20091;-63
2022/07/12 08:48:46;;;;;;;6.38;5.93;;;;;;;-141.48;100.00;69781.59;4970012;29;20031;-64
2022/07/12 08:51:21;;;;;;;6.60;6.20;;;;;;;-141.48;100.00;69781.59;4970793;29;20449;-62
2022/07/12 08:54:08;;;;;;;7.65;7.05;;;;;;;-141.48;100.00;69781.59;4970871;29;20062;-64
2022/07/12 08:56:40;;;;;;;5.82;5.53;;;;;;;-141.48;100.00;69781.59;4970895;29;20106;-62
2022/07/12 08:59:15;;;;;;;6.95;6.10;;;;;;;-141.48;100.00;69781.59;4971014;29;20058;-62
2022/07/12 09:01:51;;;;;;;7.53;7.07;;;;;;;-141.48;100.00;69781.59;4971262;29;20403;-63
2022/07/12 09:04:24;;;;;;;6.93;6.53;;;;;;;-141.48;100.00;69781.59;4954732;29;20033;-64
2022/07/12 09:06:55;;;;;;;5.97;5.55;;;;;;;-141.48;100.00;69781.59;4970927;29;20035;-62
2022/07/12 09:09:37;;;;;;;6.30;6.00;;;;;;;-141.48;100.00;69781.59;4969608;29;20034;-64
2022/07/12 09:12:22;;;;;;;6.40;6.05;;;;;;;-141.48;100.00;69781.59;4969628;29;20039;-64
2022/07/12 09:14:52;;;;;;;6.38;5.97;;;;;;;-141.48;100.00;69781.59;4970860;29;20468;-63
2022/07/12 09:17:23;;;;;;;5.88;5.55;;;;;;;-141.48;100.00;69781.59;4971183;29;20059;-64
2022/07/12 09:19:55;;;;;;;6.57;6.18;;;;;;;-141.48;100.00;69781.59;4970692;29;20112;-63
2022/07/12 09:22:26;;;;;;;5.47;5.15;;;;;;;-141.48;100.00;69781.59;4971227;29;20035;-64
2022/07/12 09:24:56;;;;;;;7.28;6.78;;;;;;;-141.48;100.00;69781.59;4969111;29;20396;-63
2022/07/12 09:27:27;;;;;;;5.80;5.35;;;;;;;-141.48;100.00;69781.59;4969720;29;20034;-64
2022/07/12 09:29:57;;;;;;;7.07;5.78;;;;;;;-141.48;100.00;69781.59;4971009;29;20029;-64
2022/07/12 09:38:12;;;;;;;8.73;6.55;;;;;;;-141.48;100.00;69781.59;4970473;29;20080;-61
2022/07/12 09:40:42;;;;;;;6.57;6.18;;;;;;;-141.48;100.00;69781.59;4970445;29;20488;-63
2022/07/12 09:43:15;;;;;;;4.60;4.22;;;;;;;-141.48;100.00;69781.59;4970469;29;20096;-61
2022/07/12 09:45:49;;;;;;;5.65;5.30;;;;;;;-141.48;100.00;69781.59;4970025;29;20027;-65
2022/07/12 09:48:23;;;;;;;6.95;6.05;;;;;;;-141.48;100.00;69781.59;4969279;29;20027;-65
2022/07/12 09:50:57;;;;;;;4.18;3.97;;;;;;;-141.48;100.00;69781.59;4970516;29;20030;-62
2022/07/12 09:53:29;;;;;;;4.47;4.10;;;;;;;-141.48;100.00;69781.59;4970218;29;20105;-63
2022/07/12 09:56:05;;;;;;;5.00;4.53;;;;;;;-141.48;100.00;69781.59;4968701;29;20557;-64
2022/07/12 09:58:39;;;;;;;6.90;6.22;;;;;;;-141.48;100.00;69781.59;4970668;29;20030;-64
2022/07/12 10:01:10;;;;;;;5.75;5.35;;;;;;;-141.48;100.00;69781.59;4970225;29;20035;-65
2022/07/12 10:03:42;;;;;;;4.78;4.55;;;;;;;-141.48;100.00;69781.59;4969172;29;20404;-64
2022/07/12 10:06:16;;;;;;;4.80;4.53;;;;;;;-141.48;100.00;69781.59;4970016;29;20110;-63
2022/07/12 10:08:47;;;;;;;4.93;4.50;;;;;;;-141.48;100.00;69781.59;4969822;29;20037;-63
2022/07/12 10:11:19;;;;;;;5.75;5.32;;;;;;;-141.48;100.00;69781.59;4970133;29;20109;-62
2022/07/12 10:13:51;;;;;;;4.90;4.55;;;;;;;-141.48;100.00;69781.59;4969825;29;20038;-62
2022/07/12 10:16:27;;;;;;;5.35;5.05;;;;;;;-141.48;100.00;69781.59;4970243;29;20026;-62
2022/07/12 10:19:28;;;;;;;4.63;4.32;;;;;;;-141.48;100.00;69781.59;4970563;29;20026;-64
2022/07/12 10:22:00;;;;;;;4.75;4.45;;;;;;;-141.48;100.00;69781.59;4970201;29;20110;-61
2022/07/12 10:24:30;;;;;;;5.88;5.47;;;;;;;-141.48;100.00;69781.59;4969648;29;20022;-62
2022/07/12 10:27:12;;;;;;;5.38;5.03;;;;;;;-141.48;100.00;69781.59;4969868;29;20039;-63
2022/07/12 10:29:48;;;;;;;6.32;5.93;;;;;;;-141.48;100.00;69781.59;4969777;29;20038;-63
2022/07/12 10:32:25;;;;;;;4.65;4.35;;;;;;;-141.48;100.00;69781.59;4968691;29;20370;-69
2022/07/12 10:35:00;;;;;;;4.30;4.10;;;;;;;-141.48;100.00;69781.59;4968239;29;20506;-64
2022/07/12 10:37:30;;;;;;;3.58;3.38;;;;;;;-141.48;100.00;69781.59;4991383;24;20065;-63
2022/07/12 10:40:27;;;;;;;5.97;4.55;;;;;;;-141.48;100.00;69781.59;4956744;29;20035;-63
2022/07/12 10:43:00;;;;;;;6.78;6.22;;;;;;;-141.48;100.00;69781.59;4984499;29;20042;-62
2022/07/12 10:45:32;;;;;;;5.72;5.25;;;;;;;-141.48;100.00;69781.59;4989115;29;20065;-63
2022/07/12 10:48:13;;;;;;;5.38;5.07;;;;;;;-141.48;100.00;69781.59;4969742;29;20030;-62
2022/07/12 10:50:48;;;;;;;4.07;3.88;;;;;;;-141.48;100.00;69781.59;4969085;29;20122;-63
2022/07/12 10:53:18;;;;;;;4.70;4.15;;;;;;;-141.48;100.00;69781.59;4969223;29;20026;-63
2022/07/12 10:56:06;;;;;;;4.95;4.55;;;;;;;-141.48;100.00;69781.59;4969241;29;20376;-62
2022/07/12 10:58:58;;;;;;;3.97;3.78;;;;;;;-141.48;100.00;69781.59;4969901;29;20046;-63
2022/07/12 11:01:31;;;;;;;5.93;5.47;;;;;;;-141.48;100.00;69781.59;4970678;29;20039;-63
2022/07/12 11:04:06;;;;;;;5.03;4.72;;;;;;;-141.48;100.00;69781.59;4970506;29;20027;-63
2022/07/12 11:06:41;;;;;;;5.55;5.00;;;;;;;-141.48;100.00;69781.59;4970310;29;20038;-62
2022/07/12 11:09:15;;;;;;;4.80;3.50;;;;;;;-141.48;100.00;69781.59;4970102;29;20114;-62
2022/07/12 11:11:51;;;;;;;4.20;4.00;;;;;;;-141.48;100.00;69781.59;4970627;29;20026;-63
2022/07/12 11:14:21;;;;;;;4.50;4.20;;;;;;;-141.48;100.00;69781.59;4970603;29;20034;-62
2022/07/12 11:16:54;;;;;;;4.95;4.75;;;;;;;-141.48;100.00;69781.59;4957763;29;20365;-62
2022/07/12 11:19:27;;;;;;;4.35;3.88;;;;;;;-141.48;100.00;69781.59;4958615;29;20034;-62
2022/07/12 11:21:58;;;;;;;4.35;3.95;;;;;;;-141.48;100.00;69781.59;4973926;29;20035;-62
2022/07/12 11:24:35;;;;;;;4.32;3.70;;;;;;;-141.48;100.00;69781.59;4974412;29;20058;-63
2022/07/12 11:27:06;;;;;;;3.95;3.75;;;;;;;-141.48;100.00;69781.59;4957698;29;20096;-62
2022/07/12 11:29:36;;;;;;;5.72;4.13;;;;;;;-141.48;100.00;69781.59;4973481;29;20465;-63
2022/07/12 11:32:07;;;;;;;5.38;5.07;;;;;;;-141.48;100.00;69781.59;4973451;29;20117;-62
2022/07/12 11:34:38;;;;;;;4.28;4.07;;;;;;;-141.48;100.00;69781.59;4972937;29;20027;-62
2022/07/12 11:37:08;;;;;;;4.07;3.88;;;;;;;-141.48;100.00;69781.59;4973682;29;20031;-63